KPWA/PWA METAR and TAF weather

Enter ICAO airport designator
Station Type Date Time Source
KPWA METAR 2021/09/20 03:53 UTC NOAA

KPWA 200353Z AUTO 16016KT 10SM CLR 28/17 A2983 RMK AO2 SLP083 T02830167


Station Type Date Time Source
KPWA Decoded METAR 2021/09/20 03:53 UTC NOAA

WILEY POST, OK, United States (KPWA) 35-32N 97-39W 397M
Sep 19, 2021 - 11:53 PM EDT / 2021.09.20 0353 UTC
Wind: from the SSE (160 degrees) at 18 MPH (16 KT):0
Visibility: 10 mile(s):0
Sky conditions: clear
Temperature: 82.9 F (28.3 C)
Dew Point: 62.1 F (16.7 C)
Relative Humidity: 49%
Pressure (altimeter): 29.83 in. Hg (1010 hPa)
ob: KPWA 200353Z AUTO 16016KT 10SM CLR 28/17 A2983 RMK AO2 SLP083 T02830167
cycle: 4

Station Type Date Time Source
KPWA TAF UTC NOAA

Error!

Example: see airport list